• Join FlightAware (Why Join?)
  • Login
  • US Flag 
02:51AM EDT


 

Airport Tracker/Info


-or-


 

Live Flight TrackerFlight Track Log ✈ AAL408 ✈ 03-May-2013 ✈ KTUS - KORD

Flight Track Log - Related Links

Times and Time Zones

All times are in EDT time to prevent confusion due to time zone crossing. See the AAL408 flight status page for this flight to view local times or setup timezone preferences in your user account.

Time Position Orientation Groundspeed Altitude Reporting Facility
EDT Latitude Longitude Course Direction KTS MPH feet Rate Location/Type
05:51PM 32.0781 -110.8939 158° South 186 214 4,300  Level Albuquerque Center
05:51PM 32.0514 -110.8558 130° Southeast 227 261 5,400 1,740 Climbing Albuquerque Center
05:52PM 32.2489 -110.7155 140° Southeast  Level Estimated
05:52PM 32.0667 -110.7711 78° East 270 311 7,300  Level Albuquerque Center
05:53PM 32.3152 -110.6024 106° East  Level Estimated
05:53PM 32.0764 -110.6778 83° East 326 375 9,300  Level Albuquerque Center
05:54PM 32.3813 -110.4892 77° East  Level Estimated
05:54PM 32.0897 -110.5747 81° East 322 371 11,700  Level Albuquerque Center
05:55PM 32.4474 -110.3759 76° East  Level Estimated
05:55PM 32.1064 -110.4622 80° East 346 398 14,100  Level Albuquerque Center
05:56PM 32.3400 -110.3232 158° South  Level FlightAware Approximate
05:56PM 32.1250 -110.3433 79° East 367 422 15,900  Level Albuquerque Center
05:57PM 32.2022 -110.2556 44° Northeast 388 447 18,200 2,160 Climbing Albuquerque Center
05:58PM 32.2872 -110.1339 50° Northeast 401 461 20,400 1,920 Climbing Albuquerque Center
05:59PM 32.3617 -110.0303 50° Northeast 412 474 22,200 1,560 Climbing Albuquerque Center
06:00PM 32.4364 -109.9256 50° Northeast 418 481 23,700 1,380 Climbing Albuquerque Center
06:01PM 32.5164 -109.8164 49° Northeast 433 498 25,100 1,320 Climbing Albuquerque Center
06:03PM 32.5967 -109.7047 50° Northeast 445 512 26,500 1,320 Climbing Albuquerque Center
06:04PM 32.6958 -109.5664 50° Northeast 457 526 27,900 1,020 Climbing Albuquerque Center
06:05PM 32.7786 -109.4494 50° Northeast 464 534 28,700 900 Climbing Albuquerque Center
06:06PM 32.8650 -109.3281 50° Northeast 477 549 29,800 1,080 Climbing Albuquerque Center
06:07PM 32.9514 -109.2067 50° Northeast 481 554 31,000 1,140 Climbing Albuquerque Center
06:08PM 33.0478 -109.0669 51° Northeast 482 555 32,200 960 Climbing Albuquerque Center
06:09PM 33.1325 -108.9458 50° Northeast 478 550 33,000 360 Climbing Albuquerque Center
06:10PM 33.2181 -108.8236 50° Northeast 477 549 33,000  Level Albuquerque Center
06:11PM 33.2958 -108.7136 50° Northeast 478 550 33,000  Level Albuquerque Center
06:12PM 33.3953 -108.5681 51° Northeast 475 547 33,000  Level Albuquerque Center
06:13PM 33.4778 -108.4483 50° Northeast 471 542 33,000  Level Albuquerque Center
06:14PM 33.5597 -108.3292 50° Northeast 469 540 33,000  Level Albuquerque Center
06:15PM 33.6406 -108.2097 51° Northeast 466 536 33,000  Level Albuquerque Center
06:16PM 33.7319 -108.0764 50° Northeast 460 529 33,000  Level Albuquerque Center
06:17PM 33.8133 -107.9569 51° Northeast 460 529 33,000  Level Albuquerque Center
06:18PM 33.8922 -107.8414 51° Northeast 451 519 33,000 -60 Level Albuquerque Center
06:19PM 33.9717 -107.7242 51° Northeast 451 519 32,900 -60 Descending Albuquerque Center
06:20PM 34.0511 -107.6058 51° Northeast 452 520 32,900  Level Albuquerque Center
06:21PM 34.1300 -107.4886 51° Northeast 451 519 33,000  Climbing Albuquerque Center
06:22PM 34.2083 -107.3708 51° Northeast 450 518 33,000  Level Albuquerque Center
06:23PM 34.2867 -107.2550 51° Northeast 448 516 33,000  Level Albuquerque Center
06:24PM 34.3725 -107.1292 50° Northeast 447 514 33,000  Level Albuquerque Center
06:25PM 34.4492 -107.0106 52° Northeast 448 516 33,000  Level Albuquerque Center
06:26PM 34.5267 -106.8956 51° Northeast 445 512 33,000  Level Albuquerque Center
06:27PM 34.6175 -106.7539 52° Northeast 445 512 33,000  Level Albuquerque Center
06:28PM 34.6936 -106.6386 51° Northeast 443 510 33,000  Level Albuquerque Center
06:29PM 34.7706 -106.5208 51° Northeast 447 514 33,000  Level Albuquerque Center
06:30PM 34.8469 -106.4047 51° Northeast 445 512 33,000  Level Albuquerque Center
06:31PM 34.9219 -106.2889 52° Northeast 441 507 33,000  Level Albuquerque Center
06:32PM 34.9978 -106.1719 52° Northeast 441 507 33,000  Level Albuquerque Center
06:33PM 35.0886 -106.0308 52° Northeast 443 510 33,000  Level Albuquerque Center
06:34PM 35.1631 -105.9144 52° Northeast 435 501 33,000  Level Albuquerque Center
06:35PM 35.2417 -105.7933 52° Northeast 449 517 33,000  Level Albuquerque Center
06:36PM 35.3181 -105.6744 52° Northeast 442 509 33,000  Level Albuquerque Center
06:37PM 35.3942 -105.5553 52° Northeast 440 506 33,000  Level Albuquerque Center
06:38PM 35.4669 -105.4381 53° Northeast 432 497 33,000  Level Albuquerque Center
06:40PM 35.5392 -105.3211 53° Northeast 427 491 33,000  Level Albuquerque Center
06:41PM 35.6153 -105.2014 52° Northeast 435 501 33,000  Level Albuquerque Center
06:42PM 35.6886 -105.0475 60° Northeast 443 510 33,000  Level Albuquerque Center
06:43PM 35.7383 -104.9044 67° East 448 516 33,000  Level Albuquerque Center
06:44PM 35.7889 -104.7614 66° East 449 517 33,000  Level Albuquerque Center
06:45PM 35.8400 -104.6169 66° East 453 521 33,000  Level Albuquerque Center
06:46PM 35.8911 -104.4733 66° East 453 521 33,000  Level Albuquerque Center
06:47PM 35.9411 -104.3289 67° East 452 520 33,000  Level Albuquerque Center
06:48PM 35.9903 -104.1844 67° East 452 520 33,000 300 Level Albuquerque Center
06:49PM 36.0403 -104.0419 67° East 449 517 33,700 660 Climbing Albuquerque Center
06:50PM 36.0892 -103.8983 67° East 448 516 34,400 600 Climbing Albuquerque Center
06:51PM 36.1381 -103.7564 67° East 446 513 35,000 240 Climbing Albuquerque Center
06:52PM 36.1869 -103.6197 66° East 435 501 35,000  Level Albuquerque Center
06:53PM 36.2353 -103.4783 67° East 438 504 35,000  Level Albuquerque Center
06:54PM 36.2825 -103.3342 68° East 444 511 35,000  Level Albuquerque Center
06:55PM 36.3372 -103.1656 68° East 447 514 35,000  Level Albuquerque Center
06:56PM 36.3856 -103.0253 67° East 442 509 35,000  Level Albuquerque Center
06:57PM 36.4328 -102.8850 67° East 437 503 35,000  Level Albuquerque Center
06:58PM 36.4736 -102.7525 69° East 442 509 35,000  Level Albuquerque Center
06:59PM 36.5208 -102.6108 67° East 443 510 35,000  Level Albuquerque Center
07:00PM 36.5678 -102.4689 68° East 444 511 35,000  Level Albuquerque Center
07:01PM 36.6219 -102.2983 68° East 442 509 35,000  Level Albuquerque Center
07:02PM 36.6692 -102.1575 67° East 440 506 35,000  Level Albuquerque Center
07:03PM 36.7128 -102.0208 68° East 442 509 35,000  Level Albuquerque Center
07:04PM 36.7625 -101.8667 68° East 434 499 35,000  Level Albuquerque Center
07:05PM 36.8044 -101.7328 69° East 432 497 35,000  Level Albuquerque Center
07:06PM 36.8472 -101.6006 68° East 430 495 35,000  Level Albuquerque Center
07:07PM 36.8967 -101.4456 68° East 432 497 35,000  Level Albuquerque Center
07:08PM 36.9383 -101.3111 69° East 433 498 35,000  Level Kansas City Center
07:09PM 36.9803 -101.1783 68° East 432 497 35,000  Level Kansas City Center
07:10PM 37.0217 -101.0453 69° East 431 496 35,000  Level Kansas City Center
07:11PM 37.0644 -100.8864 71° East 432 497 35,000  Level Kansas City Center
07:12PM 37.0939 -100.7453 75° East 438 504 35,000  Level Kansas City Center
07:13PM 37.1308 -100.5825 74° East 439 505 35,000  Level Kansas City Center
07:14PM 37.1614 -100.4417 75° East 439 505 35,000  Level Kansas City Center
07:15PM 37.1989 -100.2714 74° East 450 518 35,000  Level Kansas City Center
07:16PM 37.2306 -100.1281 74° East 449 517 35,000  Level Kansas City Center
07:17PM 37.2658 -99.9617 75° East 445 512 35,000  Level Kansas City Center
07:18PM 37.2958 -99.8203 75° East 440 506 35,000  Level Kansas City Center
07:19PM 37.3325 -99.6531 75° East 444 511 35,000  Level Kansas City Center
07:21PM 37.3614 -99.5097 76° East 445 512 35,000  Level Kansas City Center
07:22PM 37.3953 -99.3575 74° East 445 512 35,000  Level Kansas City Center
07:23PM 37.4267 -99.2072 75° East 444 511 35,000  Level Kansas City Center
07:24PM 37.4564 -99.0561 76° East 446 513 35,000  Level Kansas City Center
07:25PM 37.4931 -98.8753 76° East 444 511 35,000  Level Kansas City Center
07:26PM 37.5228 -98.7211 76° East 450 518 35,000  Level Kansas City Center
07:27PM 37.5525 -98.5672 76° East 453 521 35,000  Level Kansas City Center
07:28PM 37.5828 -98.4167 76° East 445 512 35,000  Level Kansas City Center
07:29PM 37.6139 -98.2667 75° East 445 512 35,000  Level Kansas City Center
07:30PM 37.6422 -98.1175 76° East 442 509 35,000  Level Kansas City Center
07:31PM 37.6772 -97.9375 76° East 445 512 35,000  Level Kansas City Center
07:32PM 37.7058 -97.7906 76° East 440 506 35,000  Level Kansas City Center
07:33PM 37.7331 -97.6444 77° East 434 499 35,000  Level Kansas City Center
07:34PM 37.7858 -97.5119 63° Northeast 434 499 35,000  Level Kansas City Center
07:35PM 37.8553 -97.3897 54° Northeast 433 498 35,000  Level Kansas City Center
07:36PM 37.9383 -97.2417 55° Northeast 433 498 35,000  Level Kansas City Center
07:37PM 38.0075 -97.1158 55° Northeast 436 502 35,000  Level Kansas City Center
07:38PM 38.0769 -96.9917 55° Northeast 433 498 35,000  Level Kansas City Center
07:39PM 38.1458 -96.8669 55° Northeast 433 498 35,000  Level Kansas City Center
07:40PM 38.2158 -96.7414 55° Northeast 435 501 35,000  Level Kansas City Center
07:41PM 38.2850 -96.6164 55° Northeast 434 499 35,000  Level Kansas City Center
07:42PM 38.3678 -96.4650 55° Northeast 429 494 35,000  Level Kansas City Center
07:43PM 38.4383 -96.3358 55° Northeast 434 499 35,000  Level Kansas City Center
07:44PM 38.5022 -96.2156 56° Northeast 429 494 35,000  Level Kansas City Center
07:45PM 38.5783 -96.0750 55° Northeast 431 496 35,000  Level Kansas City Center
07:46PM 38.6428 -95.9539 56° Northeast 431 496 35,000  Level Kansas City Center
07:47PM 38.7081 -95.8328 55° Northeast 432 497 35,000  Level Kansas City Center
07:48PM 38.7850 -95.6892 55° Northeast 439 505 35,000  Level Kansas City Center
07:49PM 38.8497 -95.5672 56° Northeast 435 501 35,000  Level Kansas City Center
07:50PM 38.9267 -95.4242 55° Northeast 435 501 35,000  Level Kansas City Center
07:51PM 38.9914 -95.3017 56° Northeast 435 501 35,000  Level Kansas City Center
07:52PM 39.0678 -95.1553 56° Northeast 429 494 35,000  Level Kansas City Center
07:54PM 39.1275 -95.0397 56° Northeast 432 497 35,000  Level Kansas City Center
07:55PM 39.1989 -94.9031 56° Northeast 417 480 35,000  Level Kansas City Center
07:56PM 39.2589 -94.7878 56° Northeast 409 471 35,000  Level Kansas City Center
07:57PM 39.3228 -94.6489 59° Northeast 406 467 35,000 -60 Level Kansas City Center
07:58PM 39.3722 -94.5239 63° Northeast 407 468 34,900 -480 Descending Kansas City Center
07:59PM 39.4300 -94.3811 62° Northeast 401 461 34,100 -780 Descending Kansas City Center
08:00PM 39.4775 -94.2642 62° Northeast 386 444 33,400 -540 Descending Kansas City Center
08:01PM 39.5336 -94.1250 62° Northeast 392 451 33,000 -240 Descending Kansas City Center
08:02PM 39.5819 -94.0044 62° Northeast 394 453 33,000  Level Kansas City Center
08:03PM 39.6389 -93.8622 62° Northeast 399 459 33,000  Level Kansas City Center
08:04PM 39.6872 -93.7392 63° Northeast 394 453 33,000  Level Kansas City Center
08:05PM 39.7397 -93.6097 62° Northeast 402 463 33,000  Level Kansas City Center
08:06PM 39.7883 -93.4783 64° Northeast 406 467 33,000  Level Kansas City Center
08:07PM 39.8369 -93.3478 64° Northeast 415 478 33,000  Level Kansas City Center
08:08PM 39.8925 -93.2236 60° Northeast 404 465 33,000  Level Kansas City Center
08:09PM 39.9511 -93.0681 64° Northeast 402 463 33,000  Level Kansas City Center
08:10PM 40.0017 -92.9372 63° Northeast 405 466 33,000  Level Kansas City Center
08:11PM 40.0514 -92.8075 63° Northeast 405 466 33,000  Level Kansas City Center
08:12PM 40.0992 -92.6794 64° Northeast 404 465 33,000  Level Kansas City Center
08:13PM 40.1556 -92.5311 64° Northeast 406 467 33,000  Level Kansas City Center
08:14PM 40.2044 -92.4014 64° Northeast 411 473 33,000  Level Kansas City Center
08:15PM 40.2553 -92.2572 65° Northeast 412 474 33,000  Level Kansas City Center
08:16PM 40.3028 -92.1256 65° Northeast 408 470 33,000  Level Kansas City Center
08:17PM 40.3506 -91.9919 65° Northeast 408 470 33,000  Level Kansas City Center
08:18PM 40.3978 -91.8561 65° Northeast 411 473 33,000  Level Kansas City Center
08:19PM 40.4561 -91.6894 65° Northeast 420 483 33,000  Level Kansas City Center
08:20PM 40.5028 -91.5483 66° East 425 489 33,000  Level Kansas City Center
08:21PM 40.5225 -91.4928 65° Northeast 424 488 33,000  Level Chicago Center
08:22PM 40.5711 -91.3497 66° East 429 494 33,000  Level Chicago Center
08:23PM 40.6250 -91.1958 65° Northeast 433 498 33,000  Level Chicago Center
08:24PM 40.6747 -91.0511 66° East 433 498 33,000  Level Chicago Center
08:25PM 40.7228 -90.9075 66° East 431 496 33,000  Level Chicago Center
08:26PM 40.7719 -90.7639 66° East 430 495 33,000  Level Chicago Center
08:27PM 40.8203 -90.6178 66° East 432 497 33,000  Level Chicago Center
08:28PM 40.8789 -90.4436 66° East 431 496 33,000  Level Chicago Center
08:29PM 40.9292 -90.2958 66° East 436 502 33,000 -480 Level Chicago Center
08:30PM 40.9800 -90.1389 67° East 440 506 32,100 -1,500 Descending Chicago Center
08:31PM 41.0286 -89.9939 66° East 445 512 30,000 -2,280 Descending Chicago Center
08:32PM 41.0775 -89.8400 67° East 450 518 27,500 -2,460 Descending Chicago Center
08:33PM 41.1278 -89.6864 66° East 452 520 25,000 -2,280 Descending Chicago Center
08:34PM 41.1781 -89.5394 66° East 441 507 22,900 -2,220 Descending Chicago Center
08:35PM 41.2331 -89.4086 61° Northeast 409 471 20,500 -2,160 Descending Chicago Center
08:36PM 41.2875 -89.2742 62° Northeast 410 472 18,500 -2,280 Descending Chicago Center
08:37PM 41.3442 -89.1269 63° Northeast 381 438 15,900 -2,940 Descending Chicago Center
08:38PM 41.3911 -89.0081 62° Northeast 365 420 12,500 -2,520 Descending Chicago Center
08:39PM 41.4378 -88.8947 61° Northeast 351 404 10,800 -780 Descending Chicago Center
08:40PM 41.4814 -88.7831 62° Northeast 342 394 10,900  Climbing Chicago Center
08:41PM 41.5236 -88.6794 61° Northeast 261 300 10,900  Level Chicago Center
08:42PM 41.5542 -88.5992 63° Northeast 244 281 11,000 -60 Climbing Chicago Center
08:43PM 41.5858 -88.5206 62° Northeast 241 277 10,800 -840 Descending Chicago Center
08:44PM 41.6203 -88.4428 59° Northeast 242 278 9,300 -1,380 Descending Chicago Center
08:45PM 41.6625 -88.3731 51° Northeast 240 276 8,000 -1,200 Descending Chicago Center
08:47PM 41.7189 -88.3108 39° Northeast 277 319 6,900 -900 Descending Chicago Center
08:48PM 41.8008 -88.3228 354° North 307 353 6,200 -840 Descending Chicago Center
08:49PM 41.8908 -88.3586 343° North 283 326 5,200 -600 Descending Chicago Center
08:50PM 41.9572 -88.3692 353° North 245 282 5,000 -180 Descending Chicago Center
08:51PM 41.9678 -88.3081 77° East 238 274 4,900 -60 Descending Chicago Center
08:52PM 41.9672 -88.2300 91° East 215 247 4,900 -480 Level Chicago Center
08:53PM 41.9672 -88.1647 90° East 191 220 4,000 -900 Descending Chicago Center
08:54PM 41.9667 -88.1000 91° East 164 189 3,300 -840 Descending Chicago TRACON